Aviation Digital Data Service (ADDS)

Output produced by METARs form (0039 UTC 21 July 2017)
found at http://aviationweather.gov/adds/metars/
 
KPNE 202333Z 2100/2124 27008KT P6SM SCT050 
     TEMPO 2100/2102 29015G30KT 4SM TSRA OVC035CB 
     FM210200 26004KT P6SM SCT100 
     FM211000 31006KT P6SM SCT050 
     FM211600 27008KT P6SM SCT050